Pescadero, California
Current Conditions -  °F | °C
As of 2:35 PM on Sunday 23 Nov 2014 (Local Time) from KHAF Reporting Station
Clear Clear  
Wind Chill: 61°   Ceiling: Unl
Heat Index: 61°   Visibility: 9mi
Dew Point: 48°   Wind: 12mph
Humidity: 63%   Direction: 330°NNW
Pressure: 30.28"   Gusts: NA
Location:  37.25°N, 122.38°W
Report Text: KHAF 232235Z AUTO 33010KT 9SM CLR 16/09 A3028 RMK AO2
Loading
Personal Weather Stations






























Interactive Weather Map New forecast layout! Learn more

10-Day Weather Forecast

Advertisements
Track Severe Weather on mobile